Time;durP1;ratioP1;P1;durP2;ratioP2;P2;SDS_P1;SDS_P2;PMS_P1;PMS_P2;Temp;Humidity;BMP_temperature;BMP_pressure;BME280_temperature;BME280_humidity;BME280_pressure;Samples;Min_cycle;Max_cycle;Signal;HPM_P1;HPM_P2
2022/06/17 00:01:55;;;;;;;7.10;3.72;;;;;;;20.24;65.56;97140.56;5057081;28;20202;-49
2022/06/17 00:04:21;;;;;;;6.30;3.72;;;;;;;20.22;65.15;97132.72;5056224;28;20302;-51
2022/06/17 00:06:49;;;;;;;5.70;3.42;;;;;;;20.12;65.99;97137.53;5056890;28;20610;-49
2022/06/17 00:09:19;;;;;;;4.18;3.42;;;;;;;20.08;66.37;97138.13;5056695;28;20318;-50
2022/06/17 00:11:45;;;;;;;4.90;3.42;;;;;;;20.02;66.33;97146.94;5061526;28;20279;-49
2022/06/17 00:14:16;;;;;;;4.05;3.15;;;;;;;20.05;65.32;97133.16;5059212;28;20610;-50
2022/06/17 00:16:44;;;;;;;4.07;3.65;;;;;;;20.04;65.62;97135.00;5057568;28;20218;-49
2022/06/17 00:19:11;;;;;;;4.30;3.65;;;;;;;19.95;66.82;97127.22;5056595;28;20596;-49
2022/06/17 00:21:40;;;;;;;3.58;3.28;;;;;;;19.91;66.78;97120.59;5056352;28;20723;-50
2022/06/17 00:24:14;;;;;;;4.43;3.35;;;;;;;19.87;66.71;97129.00;5074407;28;20206;-50
2022/06/17 00:26:40;;;;;;;4.38;3.80;;;;;;;19.90;66.25;97126.97;5076591;28;20620;-50
2022/06/17 00:29:10;;;;;;;9.35;3.80;;;;;;;19.85;65.89;97130.22;5076205;28;20555;-51
2022/06/17 00:31:37;;;;;;;7.15;3.58;;;;;;;19.73;67.73;97140.59;5076127;28;20610;-49
2022/06/17 00:34:05;;;;;;;4.60;3.53;;;;;;;19.72;67.42;97140.81;5056337;28;20576;-50
2022/06/17 00:36:31;;;;;;;3.88;3.50;;;;;;;19.69;68.06;97133.13;5055229;28;20235;-50
2022/06/17 00:38:58;;;;;;;4.53;3.65;;;;;;;19.63;67.83;97133.88;5056537;28;20211;-49
2022/06/17 00:41:28;;;;;;;3.78;3.47;;;;;;;19.59;67.81;97136.09;5056579;28;20246;-51
2022/06/17 00:43:54;;;;;;;3.72;3.42;;;;;;;19.49;68.54;97135.56;5056009;28;20628;-50
2022/06/17 00:46:28;;;;;;;5.90;3.65;;;;;;;19.52;68.13;97135.19;5055761;28;20238;-50
2022/06/17 00:49:01;;;;;;;4.15;3.30;;;;;;;19.49;68.93;97142.75;5056114;28;20302;-50
2022/06/17 00:51:33;;;;;;;4.53;4.00;;;;;;;19.47;68.85;97139.44;5056211;28;20206;-50
2022/06/17 00:54:03;;;;;;;4.05;3.63;;;;;;;19.41;71.12;97137.50;5056101;28;20302;-49
2022/06/17 00:56:32;;;;;;;4.25;3.60;;;;;;;19.45;69.63;97139.63;5056013;28;20295;-51
2022/06/17 00:59:02;;;;;;;4.65;3.63;;;;;;;19.45;69.74;97136.94;5056434;28;20211;-51
2022/06/17 01:01:36;;;;;;;5.15;3.88;;;;;;;19.44;69.60;97147.88;5055585;28;20203;-49
2022/06/17 01:04:05;;;;;;;4.78;3.58;;;;;;;19.42;70.05;97156.09;5055867;28;20558;-49
2022/06/17 01:06:35;;;;;;;4.97;3.58;;;;;;;19.43;69.15;97149.72;5055309;28;20218;-51
2022/06/17 01:11:51;;;;;;;3.90;3.60;;;;;;;19.43;69.04;97152.41;5055702;28;20694;-50
2022/06/17 01:14:20;;;;;;;3.80;3.50;;;;;;;19.38;69.54;97155.59;5055773;28;20203;-51
2022/06/17 01:16:47;;;;;;;3.97;3.50;;;;;;;19.53;67.47;97157.47;5055635;28;20642;-51
2022/06/17 01:19:23;;;;;;;4.55;3.88;;;;;;;19.47;68.01;97152.88;5055534;28;20209;-51
2022/06/17 01:21:57;;;;;;;4.18;3.88;;;;;;;19.45;68.25;97166.44;5056172;28;20546;-52
2022/06/17 01:24:25;;;;;;;4.30;4.00;;;;;;;19.46;68.05;97164.59;5056425;28;20198;-50
2022/06/17 01:26:52;;;;;;;5.43;3.58;;;;;;;19.49;67.74;97173.13;5056359;28;20294;-50
2022/06/17 01:29:19;;;;;;;3.90;3.40;;;;;;;19.46;67.91;97173.50;5055383;28;20262;-50
2022/06/17 01:31:50;;;;;;;4.45;3.72;;;;;;;19.47;68.02;97166.28;5055471;28;20300;-50
2022/06/17 01:34:18;;;;;;;6.97;4.07;;;;;;;19.42;69.38;97172.19;5055052;28;20718;-50
2022/06/17 01:36:46;;;;;;;5.40;3.75;;;;;;;19.43;68.63;97164.97;5055265;28;20210;-50
2022/06/17 01:39:13;;;;;;;4.22;3.83;;;;;;;19.42;67.88;97169.50;5055580;28;20202;-50
2022/06/17 01:41:43;;;;;;;3.97;3.67;;;;;;;19.45;67.62;97177.19;5055228;28;20559;-49
2022/06/17 01:44:14;;;;;;;4.53;3.95;;;;;;;19.38;67.80;97176.22;5054947;28;20306;-49
2022/06/17 01:46:42;;;;;;;4.65;3.85;;;;;;;19.38;67.80;97177.06;5055163;28;20337;-49
2022/06/17 01:49:11;;;;;;;5.28;3.78;;;;;;;19.32;68.69;97182.34;5055314;28;20241;-50
2022/06/17 01:51:41;;;;;;;4.18;3.72;;;;;;;19.29;67.66;97178.19;5055058;28;20364;-50
2022/06/17 01:54:12;;;;;;;4.97;3.70;;;;;;;19.24;68.23;97169.84;5054973;28;20211;-50
2022/06/17 01:56:42;;;;;;;4.47;3.75;;;;;;;19.14;68.96;97166.59;5054881;28;20293;-50
2022/06/17 01:59:11;;;;;;;3.63;3.33;;;;;;;19.12;68.22;97157.91;5055082;28;20293;-49
2022/06/17 02:01:41;;;;;;;3.95;3.60;;;;;;;19.12;66.72;97160.59;5054807;28;20282;-50
2022/06/17 02:04:11;;;;;;;4.65;3.90;;;;;;;19.13;66.46;97164.94;5054934;28;20628;-49
2022/06/17 02:06:44;;;;;;;3.95;3.65;;;;;;;19.13;65.00;97162.25;5054597;28;20230;-50
2022/06/17 02:09:10;;;;;;;3.90;3.40;;;;;;;19.16;65.55;97161.91;5054584;28;20542;-50
2022/06/17 02:11:37;;;;;;;3.95;3.60;;;;;;;19.13;65.78;97158.75;5054580;28;20715;-50
2022/06/17 02:14:08;;;;;;;4.18;3.55;;;;;;;19.09;66.81;97171.69;5054475;28;20293;-49
2022/06/17 02:16:37;;;;;;;4.45;3.30;;;;;;;19.06;66.13;97160.50;5054425;28;20711;-50
2022/06/17 02:19:04;;;;;;;4.75;3.47;;;;;;;18.99;66.42;97154.22;5053727;28;20289;-49
2022/06/17 02:21:37;;;;;;;4.15;3.45;;;;;;;18.87;66.88;97157.34;5054670;28;20199;-50
2022/06/17 02:24:04;;;;;;;3.53;3.28;;;;;;;18.85;67.40;97163.88;5055718;28;20202;-50
2022/06/17 02:26:32;;;;;;;4.32;3.65;;;;;;;18.81;67.90;97168.75;5055395;28;20303;-50
2022/06/17 02:28:59;;;;;;;4.70;3.30;;;;;;;18.78;65.74;97163.78;5055060;28;20234;-50
2022/06/17 02:31:30;;;;;;;3.95;3.40;;;;;;;18.69;67.06;97170.22;5054615;28;20218;-49
2022/06/17 02:33:57;;;;;;;4.03;3.45;;;;;;;18.66;66.70;97165.25;5054302;28;20268;-51
2022/06/17 02:36:28;;;;;;;4.05;2.97;;;;;;;18.69;64.85;97164.88;5054339;28;20207;-50
2022/06/17 02:38:55;;;;;;;4.07;3.30;;;;;;;18.66;65.04;97165.25;5054193;28;20207;-50
2022/06/17 02:41:21;;;;;;;4.43;3.13;;;;;;;18.64;65.39;97167.25;5054207;28;20655;-49
2022/06/17 02:43:50;;;;;;;3.15;2.85;;;;;;;18.59;65.26;97164.28;5054078;28;20202;-49
2022/06/17 02:46:23;;;;;;;5.03;3.25;;;;;;;18.53;65.34;97153.47;5054196;28;20254;-49
2022/06/17 02:48:52;;;;;;;3.95;3.33;;;;;;;18.61;64.44;97153.38;5054383;28;20219;-50
2022/06/17 02:51:21;;;;;;;4.70;3.55;;;;;;;18.51;65.00;97145.59;5054266;28;20207;-50
2022/06/17 02:53:47;;;;;;;4.13;3.30;;;;;;;18.51;63.86;97150.13;5053826;28;20625;-49
2022/06/17 02:56:16;;;;;;;4.50;3.55;;;;;;;18.40;65.40;97149.50;5054174;28;20211;-50
2022/06/17 02:58:49;;;;;;;5.55;3.53;;;;;;;18.33;65.75;97151.22;5054006;28;20215;-50
2022/06/17 03:01:19;;;;;;;3.15;2.95;;;;;;;18.36;64.85;97147.34;5053816;28;20214;-49
2022/06/17 03:03:47;;;;;;;4.18;3.78;;;;;;;18.27;66.31;97148.44;5054185;28;20298;-49
2022/06/17 03:06:19;;;;;;;3.30;3.00;;;;;;;18.22;66.79;97154.31;5071243;28;20207;-50
2022/06/17 03:08:49;;;;;;;3.13;2.83;;;;;;;18.28;66.15;97167.00;5074294;28;20229;-49
2022/06/17 03:11:16;;;;;;;3.92;3.10;;;;;;;18.27;65.25;97169.84;5074199;28;20296;-50
2022/06/17 03:13:46;;;;;;;6.07;3.10;;;;;;;18.18;65.38;97162.88;5073873;28;20244;-49
2022/06/17 03:16:15;;;;;;;3.88;3.47;;;;;;;18.15;66.24;97165.91;5074076;28;20297;-50
2022/06/17 03:18:44;;;;;;;4.38;3.42;;;;;;;18.15;66.27;97168.59;5072950;28;20202;-48
2022/06/17 03:21:10;;;;;;;3.53;3.22;;;;;;;18.08;66.02;97170.31;5054170;28;20290;-51
2022/06/17 03:23:44;;;;;;;3.42;3.13;;;;;;;18.08;66.31;97172.97;5054057;28;20218;-49
2022/06/17 03:26:14;;;;;;;4.40;3.30;;;;;;;18.02;68.19;97176.38;5062623;28;20209;-50
2022/06/17 03:28:42;;;;;;;3.60;3.30;;;;;;;18.01;68.58;97180.06;5073950;28;20754;-49
2022/06/17 03:31:13;;;;;;;3.30;3.00;;;;;;;18.03;67.01;97183.41;5075624;28;20289;-49
2022/06/17 03:33:47;;;;;;;3.67;3.13;;;;;;;17.94;66.39;97187.94;5077601;28;20306;-50
2022/06/17 03:36:17;;;;;;;4.53;3.63;;;;;;;17.92;66.24;97196.16;5077481;28;20245;-49
2022/06/17 03:38:49;;;;;;;3.22;3.00;;;;;;;17.94;66.49;97200.50;5077245;28;20293;-50
2022/06/17 03:41:20;;;;;;;4.13;3.15;;;;;;;17.82;69.52;97198.22;5077148;28;20711;-49
2022/06/17 03:43:50;;;;;;;6.68;5.30;;;;;;;17.82;69.56;97195.53;5077412;28;20303;-49
2022/06/17 03:46:19;;;;;;;5.47;4.72;;;;;;;17.92;66.28;97209.53;5077068;28;20785;-49
2022/06/17 03:48:52;;;;;;;3.70;3.13;;;;;;;17.96;67.00;97209.19;5077018;28;20233;-49
2022/06/17 03:51:21;;;;;;;3.50;3.20;;;;;;;17.92;68.11;97213.22;5076228;28;20258;-51
2022/06/17 03:53:50;;;;;;;3.63;3.33;;;;;;;17.92;69.21;97219.44;5076888;28;20207;-49
2022/06/17 03:56:20;;;;;;;6.35;3.58;;;;;;;17.90;67.84;97218.75;5061831;28;20345;-50
2022/06/17 03:58:48;;;;;;;4.53;3.47;;;;;;;17.92;67.74;97218.59;5056915;28;20620;-51
2022/06/17 04:01:16;;;;;;;3.53;3.20;;;;;;;17.94;67.59;97212.03;5057232;28;20666;-50
2022/06/17 04:03:50;;;;;;;3.67;3.00;;;;;;;17.98;67.48;97217.88;5067473;28;20207;-51
2022/06/17 04:06:21;;;;;;;4.10;3.40;;;;;;;18.02;68.36;97220.03;5077255;28;20206;-49
2022/06/17 04:08:53;;;;;;;4.35;3.60;;;;;;;18.05;67.99;97229.53;5076890;28;20202;-50
2022/06/17 04:11:20;;;;;;;3.97;3.63;;;;;;;18.05;67.91;97213.50;5076872;28;20221;-50
2022/06/17 04:13:47;;;;;;;3.50;3.10;;;;;;;18.14;67.44;97218.63;5076749;28;20360;-50
2022/06/17 04:16:19;;;;;;;6.25;3.38;;;;;;;18.32;67.31;97221.00;5076644;28;20738;-49
2022/06/17 04:18:46;;;;;;;5.35;3.60;;;;;;;18.45;66.52;97223.13;5074728;28;20666;-51
2022/06/17 04:21:14;;;;;;;6.72;3.58;;;;;;;18.64;65.70;97228.88;5044406;28;20307;-50
2022/06/17 04:23:41;;;;;;;3.47;3.17;;;;;;;18.78;65.03;97225.41;5056555;28;20289;-50
2022/06/17 04:26:15;;;;;;;5.43;3.30;;;;;;;18.86;65.88;97229.88;5056610;28;20207;-50
2022/06/17 04:28:47;;;;;;;3.53;2.95;;;;;;;19.09;63.87;97232.53;5056499;28;20237;-50
2022/06/17 04:31:17;;;;;;;3.30;3.08;;;;;;;19.33;63.35;97237.66;5067066;28;20202;-50
2022/06/17 04:33:46;;;;;;;3.72;3.42;;;;;;;19.52;62.79;97228.28;5076914;28;20535;-51
2022/06/17 04:36:14;;;;;;;6.15;3.20;;;;;;;19.61;65.38;97241.41;5085021;28;20298;-50
2022/06/17 04:38:50;;;;;;;3.65;3.35;;;;;;;19.68;66.04;97236.97;5080607;28;20225;-50
2022/06/17 04:41:19;;;;;;;3.97;3.58;;;;;;;19.79;65.66;97243.72;5076955;28;20198;-50
2022/06/17 04:43:48;;;;;;;5.93;3.55;;;;;;;19.82;66.49;97241.50;5075961;28;20206;-50
2022/06/17 04:46:18;;;;;;;3.97;3.22;;;;;;;19.89;66.71;97233.53;5076629;28;20737;-50
2022/06/17 04:48:46;;;;;;;4.30;3.17;;;;;;;19.87;65.57;97241.75;5076568;28;20198;-50
2022/06/17 04:51:13;;;;;;;5.03;3.33;;;;;;;19.73;69.18;97247.94;5063556;28;20207;-50
2022/06/17 04:53:43;;;;;;;3.53;3.20;;;;;;;19.63;70.69;97244.72;5056804;28;20298;-50
2022/06/17 04:56:26;;;;;;;3.63;3.33;;;;;;;19.62;70.10;97255.66;5057068;28;20195;-51
2022/06/17 04:58:58;;;;;;;4.15;3.20;;;;;;;19.64;69.40;97245.56;5057003;28;20231;-50
2022/06/17 05:01:25;;;;;;;4.38;3.38;;;;;;;19.62;69.78;97251.13;5057041;28;20210;-50
2022/06/17 05:03:53;;;;;;;3.58;3.25;;;;;;;19.72;67.88;97249.00;5056918;28;20226;-51
2022/06/17 05:06:22;;;;;;;3.13;2.92;;;;;;;19.75;67.23;97237.03;5057232;28;20243;-49
2022/06/17 05:08:53;;;;;;;3.40;3.13;;;;;;;19.81;67.90;97247.88;5056900;28;20215;-48
2022/06/17 05:11:22;;;;;;;3.50;3.20;;;;;;;19.98;66.71;97242.31;5062111;28;20210;-48
2022/06/17 05:13:53;;;;;;;3.58;2.90;;;;;;;20.13;67.56;97246.63;5063770;28;20233;-50
2022/06/17 05:16:22;;;;;;;3.00;2.80;;;;;;;20.40;67.56;97250.50;5044518;28;20245;-50
2022/06/17 05:18:49;;;;;;;3.85;3.17;;;;;;;20.64;63.68;97249.31;5056859;28;20241;-50
2022/06/17 05:21:21;;;;;;;3.30;3.00;;;;;;;20.86;65.00;97253.66;5057259;28;20723;-49
2022/06/17 05:23:49;;;;;;;3.35;3.13;;;;;;;21.11;65.45;97259.50;5059192;28;20366;-51
2022/06/17 05:26:16;;;;;;;3.03;2.72;;;;;;;21.40;59.83;97253.94;5061703;28;20218;-50
2022/06/17 05:28:42;;;;;;;3.83;2.95;;;;;;;21.66;56.62;97262.19;5060207;28;20249;-49
2022/06/17 05:31:12;;;;;;;3.38;2.85;;;;;;;21.92;52.41;97260.72;5078047;28;20240;-50
2022/06/17 05:33:40;;;;;;;4.20;2.90;;;;;;;22.11;51.72;97268.91;5079073;28;20293;-50
2022/06/17 05:36:10;;;;;;;4.45;3.10;;;;;;;22.32;51.24;97273.34;5080126;28;20241;-50
2022/06/17 05:38:37;;;;;;;3.00;2.70;;;;;;;22.49;51.22;97266.59;5068839;28;20206;-50
2022/06/17 05:41:06;;;;;;;3.35;2.70;;;;;;;22.75;51.81;97272.06;5094646;28;20209;-50
2022/06/17 05:43:32;;;;;;;2.80;2.60;;;;;;;22.97;49.39;97267.34;5098996;28;20237;-50
2022/06/17 05:46:01;;;;;;;2.97;2.78;;;;;;;23.10;45.97;97278.13;5084442;28;20187;-50
2022/06/17 05:48:28;;;;;;;7.10;2.92;;;;;;;23.09;44.33;97275.66;5078721;28;20176;-50
2022/06/17 05:50:57;;;;;;;3.60;2.92;;;;;;;23.25;44.89;97277.94;5078733;28;20227;-51
2022/06/17 05:53:24;;;;;;;4.05;2.85;;;;;;;23.50;46.54;97279.00;5094278;28;20207;-50
2022/06/17 05:55:51;;;;;;;3.33;2.58;;;;;;;23.67;48.13;97280.25;5087529;28;20195;-51
2022/06/17 05:58:19;;;;;;;5.18;3.13;;;;;;;24.00;46.50;97282.88;5077983;28;20199;-49
2022/06/17 06:00:46;;;;;;;10.27;3.38;;;;;;;24.21;45.74;97292.63;5077868;28;20209;-51
2022/06/17 06:03:19;;;;;;;6.80;3.65;;;;;;;24.35;44.77;97290.69;5072700;28;20234;-50
2022/06/17 06:05:45;;;;;;;2.60;2.33;;;;;;;24.35;42.48;97288.84;5075916;28;20262;-49
2022/06/17 06:08:13;;;;;;;3.72;3.20;;;;;;;24.52;43.77;97292.72;5075834;28;20217;-51
2022/06/17 06:10:41;;;;;;;3.20;2.65;;;;;;;24.57;41.68;97290.19;5075659;28;20726;-49
2022/06/17 06:13:09;;;;;;;2.63;2.53;;;;;;;24.64;44.43;97303.69;5055961;28;20207;-51
2022/06/17 06:15:39;;;;;;;3.80;2.55;;;;;;;24.83;44.24;97307.34;5055352;28;20538;-49
2022/06/17 06:18:07;;;;;;;4.40;2.88;;;;;;;24.91;44.39;97305.22;5041328;28;20772;-48
2022/06/17 06:20:33;;;;;;;5.32;2.67;;;;;;;24.60;41.66;97307.88;5055491;28;20210;-50
2022/06/17 06:23:00;;;;;;;3.72;2.90;;;;;;;24.27;42.99;97307.97;5055874;28;20211;-49
2022/06/17 06:25:30;;;;;;;3.45;2.60;;;;;;;24.35;44.15;97310.47;5056345;28;20213;-49
2022/06/17 06:27:56;;;;;;;2.97;2.40;;;;;;;24.53;42.23;97307.91;5055759;28;20632;-50
2022/06/17 06:30:27;;;;;;;5.15;2.75;;;;;;;24.89;42.68;97309.22;5055343;28;20663;-51
2022/06/17 06:32:56;;;;;;;3.35;2.90;;;;;;;25.06;42.24;97313.06;5055497;28;20207;-50
2022/06/17 06:35:24;;;;;;;2.38;2.20;;;;;;;25.28;40.31;97306.25;5055475;28;20605;-50
2022/06/17 06:37:51;;;;;;;2.83;2.53;;;;;;;25.31;40.99;97311.22;5055520;28;20207;-50
2022/06/17 06:40:18;;;;;;;3.25;2.33;;;;;;;25.31;38.74;97313.94;5055252;28;20306;-49
2022/06/17 06:42:48;;;;;;;3.95;2.80;;;;;;;25.50;41.68;97323.78;5055736;28;20207;-51
2022/06/17 06:45:18;;;;;;;4.47;2.78;;;;;;;25.49;38.13;97318.59;5072995;28;20210;-50
2022/06/17 06:47:45;;;;;;;3.53;2.80;;;;;;;25.73;39.33;97321.34;5079440;28;20242;-50
2022/06/17 06:50:17;;;;;;;3.25;2.97;;;;;;;25.71;39.85;97318.03;5079599;28;20222;-50
2022/06/17 06:52:44;;;;;;;8.30;3.00;;;;;;;26.26;40.04;97325.41;5078584;28;20541;-50
2022/06/17 06:55:11;;;;;;;5.18;3.13;;;;;;;26.06;37.12;97322.91;5057254;28;20207;-50
2022/06/17 06:57:51;;;;;;;2.67;2.47;;;;;;;26.21;39.02;97323.41;5055459;28;20646;-51
2022/06/17 07:00:21;;;;;;;5.93;2.97;;;;;;;26.38;39.55;97326.34;5055240;28;20245;-50
2022/06/17 07:02:48;;;;;;;2.70;2.40;;;;;;;26.60;39.91;97327.53;5055135;28;20562;-51
2022/06/17 07:05:15;;;;;;;2.58;2.38;;;;;;;26.77;39.71;97334.00;5056102;28;20650;-50
2022/06/17 07:07:43;;;;;;;2.70;2.50;;;;;;;26.81;37.21;97337.09;5059663;28;20218;-50
2022/06/17 07:10:12;;;;;;;3.65;2.90;;;;;;;27.00;36.31;97327.88;5058429;28;20227;-50
2022/06/17 07:12:39;;;;;;;4.57;2.60;;;;;;;27.29;39.02;97332.47;5059251;28;20211;-51
2022/06/17 07:15:10;;;;;;;3.17;2.75;;;;;;;26.87;38.69;97331.59;5069950;28;20237;-50
2022/06/17 07:17:36;;;;;;;3.40;3.10;;;;;;;26.28;39.97;97331.47;5076191;28;20222;-51
2022/06/17 07:20:07;;;;;;;2.90;2.70;;;;;;;26.08;39.85;97334.34;5058432;28;20294;-50
2022/06/17 07:22:36;;;;;;;3.45;3.00;;;;;;;25.44;40.60;97327.38;5058931;28;20286;-49
2022/06/17 07:25:04;;;;;;;2.63;2.40;;;;;;;25.43;39.43;97336.56;5058554;28;20237;-49
2022/06/17 07:27:31;;;;;;;9.80;2.92;;;;;;;25.43;42.60;97331.16;5058771;28;20253;-50
2022/06/17 07:29:57;;;;;;;4.88;2.75;;;;;;;25.90;41.23;97326.19;5058679;28;20234;-50
2022/06/17 07:32:25;;;;;;;3.30;2.55;;;;;;;26.18;40.84;97329.28;5058363;28;20306;-49
2022/06/17 07:34:51;;;;;;;3.22;2.92;;;;;;;26.11;41.28;97326.59;5056987;28;20222;-49
2022/06/17 07:40:04;;;;;;;5.43;3.03;;;;;;;25.92;43.40;97329.50;5058167;28;20265;-50
2022/06/17 07:42:38;;;;;;;4.30;2.80;;;;;;;26.08;40.66;97332.47;5058428;28;20229;-49
2022/06/17 07:45:07;;;;;;;3.78;2.97;;;;;;;26.12;43.52;97327.41;5058501;28;20206;-50
2022/06/17 07:47:36;;;;;;;3.30;2.72;;;;;;;26.33;42.40;97327.00;5058377;28;20327;-49
2022/06/17 07:50:04;;;;;;;6.63;2.80;;;;;;;26.59;41.24;97324.00;5058154;28;20631;-48
2022/06/17 07:52:31;;;;;;;4.35;2.95;;;;;;;27.03;37.70;97330.16;5057677;28;20573;-50
2022/06/17 07:54:59;;;;;;;5.45;2.90;;;;;;;26.97;37.44;97321.03;5057699;28;20298;-49
2022/06/17 07:57:26;;;;;;;6.68;3.17;;;;;;;27.22;39.36;97323.59;5073454;28;20205;-51
2022/06/17 07:59:52;;;;;;;4.80;2.80;;;;;;;27.53;39.40;97317.91;5072224;28;20292;-51
2022/06/17 08:02:19;;;;;;;4.90;3.13;;;;;;;27.78;37.39;97325.03;5057786;28;20206;-52
2022/06/17 08:04:46;;;;;;;5.82;3.40;;;;;;;27.88;40.07;97314.41;5057020;28;20658;-50
2022/06/17 08:07:13;;;;;;;7.28;3.10;;;;;;;27.75;36.75;97320.06;5057380;28;20218;-49
2022/06/17 08:09:41;;;;;;;6.07;3.30;;;;;;;28.10;38.96;97318.22;5057475;28;20298;-50
2022/06/17 08:12:11;;;;;;;5.75;2.70;;;;;;;28.12;39.12;97318.81;5057656;28;20227;-49
2022/06/17 08:14:43;;;;;;;11.63;3.85;;;;;;;28.36;37.55;97325.03;5043394;28;20211;-51
2022/06/17 08:17:12;;;;;;;8.50;3.25;;;;;;;28.27;38.83;97321.84;5055805;28;20290;-49
2022/06/17 08:19:39;;;;;;;4.38;2.88;;;;;;;28.33;38.13;97315.47;5057271;28;20523;-52
2022/06/17 08:22:07;;;;;;;3.75;2.90;;;;;;;28.44;37.11;97316.53;5057430;28;20203;-50
2022/06/17 08:24:33;;;;;;;6.40;3.45;;;;;;;28.24;39.16;97318.78;5056919;28;20303;-49
2022/06/17 08:27:00;;;;;;;4.25;3.10;;;;;;;28.22;37.08;97321.75;5057179;28;20217;-50
2022/06/17 08:29:28;;;;;;;3.78;2.90;;;;;;;28.30;37.36;97323.28;5057246;28;20218;-51
2022/06/17 08:31:55;;;;;;;4.90;2.95;;;;;;;28.35;38.86;97318.78;5057043;28;20262;-50
2022/06/17 08:34:22;;;;;;;6.57;3.25;;;;;;;28.71;41.28;97325.00;5056561;28;20290;-50
2022/06/17 08:36:48;;;;;;;5.13;3.15;;;;;;;29.07;36.29;97320.03;5056813;28;20226;-50
2022/06/17 08:39:16;;;;;;;6.78;3.58;;;;;;;28.90;37.22;97308.25;5056841;28;20271;-50
2022/06/17 08:41:53;;;;;;;5.50;2.97;;;;;;;29.48;34.68;97310.69;5056415;28;20199;-51
2022/06/17 08:44:38;;;;;;;4.57;3.10;;;;;;;29.48;35.11;97299.78;5057094;28;20226;-51
2022/06/17 08:47:25;;;;;;;7.40;3.47;;;;;;;29.17;34.83;97305.75;5056621;28;20239;-49
2022/06/17 08:50:27;;;;;;;4.55;3.30;;;;;;;29.29;37.16;97305.75;5056365;28;20301;-50
2022/06/17 08:53:18;;;;;;;6.57;3.17;;;;;;;29.34;38.03;97309.38;5019944;28;20298;-50
2022/06/17 08:55:55;;;;;;;4.43;2.95;;;;;;;29.15;36.75;97305.19;5067045;28;20218;-49
2022/06/17 08:58:28;;;;;;;4.22;3.35;;;;;;;29.30;36.88;97302.75;5076547;28;20618;-50
2022/06/17 09:00:59;;;;;;;3.80;3.40;;;;;;;29.56;37.02;97304.03;5080595;28;20198;-50
2022/06/17 09:03:51;;;;;;;6.13;3.50;;;;;;;29.81;35.28;97304.44;5053979;28;20294;-51
2022/06/17 09:06:26;;;;;;;6.75;3.70;;;;;;;30.01;34.11;97299.31;5078467;28;20237;-50
2022/06/17 09:09:03;;;;;;;4.18;2.85;;;;;;;30.17;33.79;97294.09;5076236;28;20216;-50
2022/06/17 09:11:37;;;;;;;5.82;3.28;;;;;;;30.21;32.94;97298.78;5076029;28;20317;-50
2022/06/17 09:14:12;;;;;;;7.13;3.50;;;;;;;30.23;34.63;97299.34;5076173;28;20214;-50
2022/06/17 09:16:44;;;;;;;4.50;3.40;;;;;;;30.09;35.84;97295.34;5076755;28;20289;-49
2022/06/17 09:19:14;;;;;;;8.65;4.15;;;;;;;30.33;37.13;97291.31;5068337;28;20196;-50
2022/06/17 09:21:46;;;;;;;4.82;3.42;;;;;;;30.54;33.24;97289.69;5048270;28;20234;-50
2022/06/17 09:24:18;;;;;;;4.53;3.67;;;;;;;30.58;36.67;97286.22;5036289;28;20211;-50
2022/06/17 09:26:49;;;;;;;5.90;3.30;;;;;;;30.49;35.73;97289.66;5069470;28;20203;-49
2022/06/17 09:29:19;;;;;;;6.78;4.28;;;;;;;30.50;35.41;97291.31;5069463;28;20218;-51
2022/06/17 09:31:49;;;;;;;7.05;3.42;;;;;;;30.37;37.53;97291.63;5057101;28;20226;-51
2022/06/17 09:34:21;;;;;;;6.85;3.72;;;;;;;30.55;33.71;97291.34;5057358;28;20210;-50
2022/06/17 09:36:52;;;;;;;3.65;3.25;;;;;;;30.68;33.90;97292.88;5056441;28;20207;-51
2022/06/17 09:39:22;;;;;;;5.05;3.10;;;;;;;30.58;34.28;97283.47;5056587;28;20308;-50
2022/06/17 09:41:54;;;;;;;7.85;3.88;;;;;;;30.58;34.95;97288.09;5073099;28;20202;-50
2022/06/17 09:44:23;;;;;;;3.92;3.50;;;;;;;30.88;35.77;97287.66;5075881;28;20289;-49
2022/06/17 09:46:51;;;;;;;4.53;3.30;;;;;;;31.19;32.70;97288.81;5057826;28;20235;-50
2022/06/17 09:49:29;;;;;;;4.53;3.15;;;;;;;31.15;32.61;97288.53;5055394;28;20624;-51
2022/06/17 09:52:07;;;;;;;5.93;4.00;;;;;;;31.20;34.50;97285.84;5056149;28;20231;-49
2022/06/17 09:54:37;;;;;;;6.30;3.80;;;;;;;31.30;32.77;97279.66;5055694;28;20259;-49
2022/06/17 09:57:09;;;;;;;8.30;3.90;;;;;;;31.04;35.10;97284.03;5056105;28;20286;-51
2022/06/17 09:59:39;;;;;;;3.88;3.50;;;;;;;31.30;35.45;97283.22;5055661;28;20203;-51
2022/06/17 10:02:18;;;;;;;6.63;3.60;;;;;;;31.40;35.32;97274.25;5055640;28;20213;-51
2022/06/17 10:04:44;;;;;;;5.68;3.30;;;;;;;31.29;33.70;97280.72;5055650;28;20230;-52
2022/06/17 10:07:22;;;;;;;5.13;3.20;;;;;;;31.35;33.52;97283.28;5067271;28;20553;-52
2022/06/17 10:09:56;;;;;;;4.40;3.40;;;;;;;31.54;33.64;97280.97;5075767;28;20201;-52
2022/06/17 10:12:34;;;;;;;5.22;3.50;;;;;;;31.67;34.21;97286.03;5061038;28;20305;-50
2022/06/17 10:15:17;;;;;;;4.57;3.67;;;;;;;31.60;35.15;97274.50;5055194;28;20243;-51
2022/06/17 10:20:47;;;;;;;3.88;3.47;;;;;;;31.84;32.37;97267.56;5055411;28;20268;-50
2022/06/17 10:23:23;;;;;;;3.80;3.38;;;;;;;31.46;33.95;97268.56;5055693;28;20285;-50
2022/06/17 10:25:57;;;;;;;4.00;3.60;;;;;;;31.13;34.90;97273.47;5055790;28;20277;-50
2022/06/17 10:28:55;;;;;;;4.20;3.47;;;;;;;31.27;33.11;97271.97;5055582;28;20240;-50
2022/06/17 10:31:27;;;;;;;5.00;3.28;;;;;;;31.62;34.34;97266.00;5055862;28;20226;-50
2022/06/17 10:33:55;;;;;;;3.83;3.22;;;;;;;31.75;35.45;97266.38;5055120;28;20571;-53
2022/06/17 10:36:21;;;;;;;6.22;3.70;;;;;;;31.85;32.43;97260.97;5055324;28;20211;-50
2022/06/17 10:38:49;;;;;;;6.13;3.65;;;;;;;31.42;31.10;97253.81;5055648;28;20203;-51
2022/06/17 10:41:17;;;;;;;5.78;3.70;;;;;;;31.63;33.14;97259.47;5058154;28;20203;-50
2022/06/17 10:43:48;;;;;;;3.97;3.67;;;;;;;31.52;33.08;97267.59;5059452;28;20707;-51
2022/06/17 10:46:18;;;;;;;5.18;3.63;;;;;;;31.65;32.81;97266.31;5059432;28;20283;-49
2022/06/17 10:48:48;;;;;;;4.28;3.35;;;;;;;31.72;33.17;97260.63;5059017;28;20211;-50
2022/06/17 10:51:16;;;;;;;4.38;3.65;;;;;;;31.66;33.79;97253.47;5059160;28;20227;-50
2022/06/17 10:53:47;;;;;;;5.28;3.65;;;;;;;31.72;32.09;97246.94;5058886;28;20647;-51
2022/06/17 10:56:17;;;;;;;3.70;3.40;;;;;;;31.83;33.42;97245.94;5058746;28;20302;-50
2022/06/17 10:58:58;;;;;;;5.22;3.72;;;;;;;31.87;33.89;97247.06;5058637;28;20224;-51
2022/06/17 11:01:25;;;;;;;7.00;3.78;;;;;;;32.09;33.47;97247.78;5058709;28;20202;-51
2022/06/17 11:04:10;;;;;;;5.38;3.50;;;;;;;31.92;33.93;97242.41;5058587;28;20211;-49
2022/06/17 11:06:47;;;;;;;4.55;3.40;;;;;;;32.08;32.40;97246.13;5045478;28;20293;-49
2022/06/17 11:09:21;;;;;;;5.65;3.67;;;;;;;31.76;31.06;97243.41;5058618;28;20214;-50
2022/06/17 11:12:04;;;;;;;4.82;3.63;;;;;;;31.76;31.40;97239.84;5057869;28;20238;-50
2022/06/17 11:14:36;;;;;;;4.63;3.60;;;;;;;31.95;31.84;97235.63;5080718;28;20221;-50
2022/06/17 11:17:03;;;;;;;5.30;3.70;;;;;;;32.28;32.95;97237.16;5059820;28;20302;-49
2022/06/17 11:19:30;;;;;;;4.22;3.78;;;;;;;32.43;31.34;97235.34;5058458;28;20272;-50
2022/06/17 11:21:59;;;;;;;8.48;3.90;;;;;;;32.29;32.72;97236.91;5057770;28;20199;-51
2022/06/17 11:24:28;;;;;;;4.30;3.60;;;;;;;32.29;30.65;97245.13;5057567;28;20302;-52
2022/06/17 11:27:06;;;;;;;3.95;3.55;;;;;;;32.07;33.99;97238.97;5057707;28;20291;-51
2022/06/17 11:29:40;;;;;;;7.70;3.90;;;;;;;32.04;34.64;97239.50;5067131;28;20294;-50
2022/06/17 11:32:27;;;;;;;4.07;3.55;;;;;;;31.84;30.15;97237.47;5077546;28;20218;-52
2022/06/17 11:34:56;;;;;;;4.32;3.38;;;;;;;31.83;31.56;97234.97;5077638;28;20206;-51
2022/06/17 11:37:25;;;;;;;4.93;3.30;;;;;;;31.97;30.66;97233.44;5077238;28;20293;-51
2022/06/17 11:40:09;;;;;;;5.75;3.53;;;;;;;31.77;31.77;97225.94;5076929;28;20212;-49
2022/06/17 11:42:44;;;;;;;6.07;3.65;;;;;;;31.81;31.39;97224.31;5077637;28;20203;-51
2022/06/17 11:45:17;;;;;;;3.70;3.40;;;;;;;32.21;31.38;97220.16;5077536;28;20289;-49
2022/06/17 11:47:47;;;;;;;5.13;3.60;;;;;;;32.18;30.74;97218.78;5077190;28;20611;-50
2022/06/17 11:50:17;;;;;;;8.82;4.00;;;;;;;32.09;29.49;97220.41;5077651;28;20206;-50
2022/06/17 11:52:44;;;;;;;3.42;3.13;;;;;;;32.17;32.81;97219.09;5076096;28;20222;-52
2022/06/17 11:55:12;;;;;;;6.28;3.50;;;;;;;32.17;32.23;97214.41;5043075;28;20207;-50
2022/06/17 11:57:40;;;;;;;5.95;3.47;;;;;;;32.29;32.98;97209.53;5070853;28;20293;-50